Tripoli, Wisconsin
Current Conditions -  °F | °C
As of 12:15 PM on Thursday 27 Nov 2014 (Local Time) from KTKV Reporting Station
Broken Clouds Broken Clouds  
Wind Chill: -2°   Ceiling: 1900
Heat Index: 10°   Visibility: 10mi
Dew Point:   Wind: 8mph
Humidity: 70%   Direction: 300°WNW
Pressure: 30.33"   Gusts: NA
Location:  45.56°N, 89.99°W
Report Text: KTKV 271815Z AUTO 30007KT 270V330 10SM BKN019 M12/M16 A3033 RMK AO2 T11201165
Loading
Personal Weather Stations






























Interactive Weather Map New forecast layout! Learn more

10-Day Weather Forecast

Advertisements
Track Severe Weather on mobile